Flight Track Log - Related Links

Times and Time Zones

All times are in EST time to prevent confusion due to time zone crossing. See the EJA922 flight status page for this flight to view local times or setup timezone preferences in your user account.

Time Position Orientation Groundspeed Altitude Reporting Facility
EST Latitude Longitude Course Direction KTS MPH feet Rate Location/Type
Wed 09:00:25 AM 42.4667 -71.2667 124° Southeast 189 217 1,200  Level KA90
Wed 09:00:55 AM 42.4500 -71.2333 124° Southeast 176 203 2,700 2,576 Climbing KA90
Wed 09:03:15 AM 42.4106 -71.3767 250° West 197 227 8,500 2,478 Climbing Boston Center
Wed 09:04:16 AM 42.3967 -71.4633 258° West 234 269 11,000 2,550 Climbing Boston Center
Wed 09:05:15 AM 42.3619 -71.5581 244° Southwest 278 320 13,600 2,410 Climbing Boston Center
Wed 09:06:18 AM 42.3214 -71.6658 243° Southwest 307 353 15,900 1,180 Climbing Boston Center
Wed 09:07:17 AM 42.2808 -71.7778 244° Southwest 330 380 16,000 50 Climbing Boston Center
Wed 09:08:18 AM 42.2353 -71.8997 243° Southwest 362 417 16,000  Level Boston Center
Wed 09:09:18 AM 42.1858 -72.0319 243° Southwest 373 429 16,000  Level Boston Center
Wed 09:10:18 AM 42.1408 -72.1536 244° Southwest 365 420 16,000  Level Boston Center
Wed 09:11:22 AM 42.0956 -72.2753 243° Southwest 364 419 16,000  Level Boston Center
Wed 09:12:23 AM 42.0506 -72.3972 244° Southwest 365 420 16,000  Level Boston Center
Wed 09:13:23 AM 42.0050 -72.5194 243° Southwest 367 422 16,000  Level Boston Center
Wed 09:14:24 AM 41.9592 -72.6442 244° Southwest 366 421 16,000  Level Boston Center
Wed 09:15:25 AM 41.9092 -72.7642 241° Southwest 363 418 16,000 -541 Level Boston Center
Wed 09:16:26 AM 41.8631 -72.8783 242° Southwest 344 396 14,900 -1,008 Descending Boston Center
Wed 09:17:24 AM 41.8208 -72.9797 241° Southwest 316 364 14,000 -454 Descending Boston Center
Wed 09:18:25 AM 41.7742 -73.0911 241° Southwest 320 368 14,000  Level Boston Center
Wed 09:19:27 AM 41.7306 -73.1953 241° Southwest 323 372 14,000  Level Boston Center
Wed 09:20:27 AM 41.6881 -73.2964 241° Southwest 312 359 14,000 -446 Level Boston Center
Wed 09:21:28 AM 41.6528 -73.3856 242° Southwest 277 319 13,100 -1,041 Descending Boston Center
Wed 09:22:28 AM 41.6503 -73.4881 268° West 277 319 11,900 -1,240 Descending Boston Center
Wed 09:23:29 AM 41.6442 -73.5853 265° West 264 304 10,600 -1,230 Descending Boston Center
Wed 09:24:30 AM 41.6342 -73.6836 262° West 251 289 9,400 -1,122 Descending Boston Center
Wed 09:25:32 AM 41.6236 -73.7714 261° West 242 278 8,300 -1,137 Descending Boston Center
Wed 09:26:05 AM 41.6000 -73.8000 222° Southwest 236 272 7,600 -839 Descending New York TRACON
Wed 09:27:05 AM 41.5333 -73.7833 169° South 250 288 7,000 -300 Descending New York TRACON
Wed 09:28:05 AM 41.4667 -73.7667 169° South 236 272 7,000  Level New York TRACON
Wed 09:29:05 AM 41.4000 -73.7333 159° South 242 278 7,000 -550 Level New York TRACON
Wed 09:30:05 AM 41.3500 -73.7000 153° Southeast 243 280 5,900 -1,100 Descending New York TRACON
Wed 09:31:05 AM 41.2833 -73.6667 159° South 216 249 4,800 -1,053 Descending New York TRACON
Wed 09:31:59 AM 41.2333 -73.6500 166° South 207 238 3,900 -947 Descending New York TRACON
Wed 09:32:59 AM 41.1833 -73.6333 166° South 215 247 3,000 -450 Descending New York TRACON
Wed 09:33:59 AM 41.1333 -73.5833 143° Southeast 220 253 3,000 -400 Level New York TRACON
Wed 09:34:59 AM 41.0667 -73.5667 169° South 217 250 2,200 -500 Descending New York TRACON
Wed 09:35:59 AM 41.0167 -73.5500 166° South 208 239 2,000 -105 Descending New York TRACON
Wed 09:36:53 AM 40.9667 -73.5500 180° South 186 214 2,000  Level New York TRACON
Wed 09:37:53 AM 40.9333 -73.5667 201° Southwest 178 205 2,000  Level New York TRACON
Wed 09:38:53 AM 40.9500 -73.6167 294° West 170 196 2,000  Level New York TRACON
Wed 09:39:47 AM 40.9833 -73.6500 323° Northwest 173 199 2,000 -368 Level New York TRACON
Wed 09:40:47 AM 41.0167 -73.6667 339° North 145 167 1,300 -700 Descending New York TRACON
Wed 09:41:47 AM 41.0500 -73.7000 323° Northwest 119 137 600 -700 Descending New York TRACON

Login

Don't have an account? Register now (free) for customized features, flight alerts, and more!